Alburg, Vermont
Current Conditions -  °F | °C
As of 12:55 PM on Thursday 23 Oct 2014 (Local Time) from KFSO Reporting Station
Drizzle Drizzle  
Wind Chill: 40°   Ceiling: 2000
Heat Index: 45°   Visibility: 10mi
Dew Point: 41°   Wind: 8mph
Humidity: 88%   Direction: 360°N
Pressure: 29.97"   Gusts: NA
Location:  44.9685°N, 73.281°W
Report Text: KFSO 231655Z AUTO 36007KT 10SM -DZ SCT014 OVC020 07/05 A2997 RMK AO2 T00700052
Loading
Personal Weather Stations






























Interactive Weather Map
Tropical Storm Tracking
New forecast layout! Learn more

10-Day Weather Forecast

Advertisements
Track Severe Weather on mobile